Terminal Aerodrome Forecast
Issued by NWS

Home | Current Version | Previous Version | Text Only | Print | Product List | Glossary On
Versions: 1 2 3 4 5 6 7 8 9 10 11 12 13 14 15 16 17 18 19 20
000
FTAK31 PANC 240541
TAFAEN
TAF
PAEN 240541Z 2406/2506 03013KT P6SM VCSH FEW040 OVC060
     FM241000 03010KT 6SM -SHRA BKN035 OVC050
     FM241700 22008KT P6SM SCT030 BKN050=

USA.gov is the U.S. government's official web portal to all federal, state and local government web resources and services.